Othello — LXOD — position and weather

sailwx.info

Track history (hours):
 
Tides and Currents Weather Stations Pressure Air Temp Water Temp Dewpoint Dewpoint Depression Visibility Wind Speed Wind Dir Waves Ship Positions

Othello

Last reported at 2016-Jun-25 06:32 UTC. Time now 2016-Jun-25 07:09 UTC.
Position N 50°29' W 000°37'.

Length 104 m; draft 7.6 m.

Type: Tanker. MMSI: 253279000.

Date/timePositionNaut miles runAvg speedWind from/ knotsBaromVisibWave heightAir tempDewpointWater temp
2016-Jun-25 06:32N 50°29' W 000°37'1414.5
2016-Jun-25 05:33N 50°30' W 000°15'1413.9
2016-Jun-25 04:33N 50°33' E 000°07'1313.4
2016-Jun-25 03:33N 50°37' E 000°27'3411.5
2016-Jun-25 00:33N 50°56' E 001°12'1212.3
2016-Jun-24 23:33N 51°04' E 001°27'1414.3
2016-Jun-24 22:33N 51°13' E 001°45'1414.2
2016-Jun-24 21:34N 51°25' E 001°57'1312.7
2016-Jun-24 20:34N 51°21' E 002°17'1312.8
2016-Jun-24 19:33N 51°23' E 002°37'1110.6
2016-Jun-24 18:33N 51°23' E 002°54'1110.6
2016-Jun-24 17:33N 51°24' E 003°11'1212.0
2016-Jun-24 16:34N 51°25' E 003°30'9 8.9
2016-Jun-24 15:33N 51°23' E 003°44'8 8.4
2016-Jun-24 14:33N 51°24' E 003°57'7 6.6
2016-Jun-24 13:34N 51°22' E 004°07'7 7.2
2016-Jun-24 12:34N 51°18' E 004°17'2 2.4
2016-Jun-24 11:33N 51°17' E 004°20'1 0.6
2016-Jun-24 10:33N 51°17' E 004°20'3 1.3
2016-Jun-24 08:33N 51°20' E 004°18'0 0.0
2016-Jun-24 07:21N 51°20' E 004°18'0 0.0
2016-Jun-24 04:27N 51°20' E 004°18'0 0.0
2016-Jun-24 03:30N 51°20' E 004°18'0 0.0
2016-Jun-24 02:21N 51°20' E 004°18'0 0.0
2016-Jun-24 01:33N 51°20' E 004°18'0 0.0
2016-Jun-24 00:33N 51°20' E 004°18'0 0.0
2016-Jun-23 22:21N 51°20' E 004°18'0 0.0
2016-Jun-23 21:30N 51°20' E 004°18'0 0.0
2016-Jun-23 20:21N 51°20' E 004°18'0 0.0
2016-Jun-23 17:21N 51°20' E 004°18'0 0.0
2016-Jun-23 16:33N 51°20' E 004°18'0 0.0
2016-Jun-23 15:09N 51°20' E 004°18'0 0.0
2016-Jun-23 14:18N 51°20' E 004°18'0 0.0
2016-Jun-23 13:33N 51°20' E 004°18'0 0.0
2016-Jun-23 11:33N 51°20' E 004°18'1 1.2
2016-Jun-23 10:33N 51°21' E 004°17'0 0.1
2016-Jun-23 09:33N 51°21' E 004°17'5 4.8
2016-Jun-23 08:33N 51°24' E 004°11'8 7.5
2016-Jun-23 07:34N 51°26' E 003°60'14 7.2
2016-Jun-23 05:33N 51°26' E 003°37'9 8.7
2016-Jun-23 04:33N 51°31' E 003°26'1110.3
2016-Jun-23 03:32N 51°41' E 003°18'5 4.6
2016-Jun-23 02:32N 51°45' E 003°17'4 3.5
2016-Jun-23 01:25N 51°47' E 003°22'0 0.1
2016-Jun-23 00:31N 51°47' E 003°22'0 0.0
2016-Jun-22 23:19N 51°47' E 003°22'0 0.0
2016-Jun-22 21:31N 51°47' E 003°22'0 0.0
2016-Jun-22 20:07N 51°47' E 003°22'0 0.0
2016-Jun-22 16:28N 51°47' E 003°22'0 0.0
2016-Jun-22 14:04N 51°47' E 003°22'0 0.0
2016-Jun-22 11:22N 51°47' E 003°22'0 0.0
2016-Jun-22 09:28N 51°47' E 003°22'0 0.0
2016-Jun-22 08:07N 51°47' E 003°22'0 0.0
2016-Jun-22 01:16N 51°47' E 003°22'0 0.1
2016-Jun-21 23:31N 51°47' E 003°22'0 0.1
2016-Jun-21 22:28N 51°47' E 003°22'0 0.0
2016-Jun-21 21:31N 51°47' E 003°22'0 0.1
2016-Jun-21 20:25N 51°47' E 003°22'0 0.0
2016-Jun-21 17:07N 51°47' E 003°22'0 0.0
2016-Jun-19 18:25N 51°47' E 003°22'0 0.0
2016-Jun-19 15:04N 51°47' E 003°22'0 0.0
2016-Jun-19 14:31N 51°47' E 003°22'0 0.0
2016-Jun-19 13:31N 51°47' E 003°22'0 0.0
2016-Jun-19 12:31N 51°47' E 003°22'0 0.0
2016-Jun-19 11:31N 51°47' E 003°22'3 0.1
2016-Jun-18 10:09N 51°46' E 003°19'7510.9
2016-Jun-18 03:15N 52°45' E 002°02'811.2
2016-Jun-18 02:33N 52°48' E 001°51'1010.0
2016-Jun-18 01:33N 52°54' E 001°38'10 9.5
2016-Jun-18 00:33N 53°02' E 001°27'10 9.6
2016-Jun-17 23:33N 53°10' E 001°20'12 9.7
2016-Jun-17 22:16N 53°21' E 001°09'710.1
2016-Jun-17 21:32N 53°25' E 000°59'1010.1
2016-Jun-17 20:30N 53°31' E 000°44'9 9.9
2016-Jun-17 19:33N 53°38' E 000°33'1010.1
2016-Jun-17 18:33N 53°47' E 000°25'1110.9
2016-Jun-17 17:31N 53°57' E 000°17'1111.3
2016-Jun-17 16:33N 54°07' E 000°10'1111.3
2016-Jun-17 15:33N 54°17' E 000°01'1111.3
2016-Jun-17 14:33N 54°27' W 000°09'1111.4
2016-Jun-17 13:33N 54°37' W 000°16'1311.4
2016-Jun-17 12:26N 54°45' W 000°34'1111.0
2016-Jun-17 11:28N 54°48' W 000°51'1010.5
2016-Jun-17 10:33N 54°46' W 001°07'2 1.5
2016-Jun-17 09:33N 54°45' W 001°10'0 0.0
2016-Jun-17 08:33N 54°45' W 001°10'0 0.0
2016-Jun-17 07:24N 54°45' W 001°10'0 0.0
2016-Jun-17 06:24N 54°45' W 001°10'0 0.0
2016-Jun-17 05:24N 54°45' W 001°10'0 0.0
2016-Jun-17 04:27N 54°45' W 001°10'0 0.0
2016-Jun-17 03:27N 54°45' W 001°10'0 0.0
2016-Jun-17 02:30N 54°45' W 001°10'0 0.3
2016-Jun-17 01:33N 54°45' W 001°09'6 0.4
2016-Jun-16 09:12N 54°39' W 001°08'5 7.1
2016-Jun-16 08:33N 54°42' W 001°02'4 4.1
2016-Jun-16 07:32N 54°43' W 000°55'0 0.0
2016-Jun-16 06:32N 54°43' W 000°55'0 0.0
2016-Jun-16 05:33N 54°43' W 000°55'0 0.0
2016-Jun-16 04:33N 54°43' W 000°54'1 1.5
2016-Jun-16 03:33N 54°42' W 000°52'1511.6
2016-Jun-16 02:14N 54°35' W 000°29'7 9.7
2016-Jun-16 01:33N 54°31' W 000°20'1010.1
2016-Jun-16 00:33N 54°23' W 000°09'1010.2
2016-Jun-15 23:33N 54°15' E 000°02'1110.6
2016-Jun-15 22:33N 54°06' E 000°12'2412.1
2016-Jun-15 20:33N 53°44' E 000°28'1413.1
2016-Jun-15 19:28N 53°32' E 000°42'1313.0
2016-Jun-15 18:27N 53°26' E 001°02'2211.8
2016-Jun-15 16:33N 53°08' E 001°24'1111.1
2016-Jun-15 15:33N 52°59' E 001°33'1111.3
2016-Jun-15 14:33N 52°51' E 001°47'1110.9
2016-Jun-15 13:33N 52°44' E 002°01'7411.9
2016-Jun-15 07:21N 51°45' E 003°13'810.0
2016-Jun-15 06:33N 51°38' E 003°21'  
Track history (hours):
 
Tides and Currents Weather Stations Pressure Air Temp Water Temp Dewpoint Dewpoint Depression Visibility Wind Speed Wind Dir Waves Ship Positions

Othello

Last reported at 2016-Jun-25 06:32 UTC. Time now 2016-Jun-25 07:09 UTC.
Position N 50°29' W 000°37'.

Length 104 m; draft 7.6 m.

Type: Tanker. MMSI: 253279000.

Date/timePositionNaut miles runAvg speedWind from/ knotsBaromVisibWave heightAir tempDewpointWater temp
2016-Jun-25 06:32N 50°29' W 000°37'1414.5
2016-Jun-25 05:33N 50°30' W 000°15'1413.9
2016-Jun-25 04:33N 50°33' E 000°07'1313.4
2016-Jun-25 03:33N 50°37' E 000°27'3411.5
2016-Jun-25 00:33N 50°56' E 001°12'1212.3
2016-Jun-24 23:33N 51°04' E 001°27'1414.3
2016-Jun-24 22:33N 51°13' E 001°45'1414.2
2016-Jun-24 21:34N 51°25' E 001°57'1312.7
2016-Jun-24 20:34N 51°21' E 002°17'1312.8
2016-Jun-24 19:33N 51°23' E 002°37'1110.6
2016-Jun-24 18:33N 51°23' E 002°54'1110.6
2016-Jun-24 17:33N 51°24' E 003°11'1212.0
2016-Jun-24 16:34N 51°25' E 003°30'9 8.9
2016-Jun-24 15:33N 51°23' E 003°44'8 8.4
2016-Jun-24 14:33N 51°24' E 003°57'7 6.6
2016-Jun-24 13:34N 51°22' E 004°07'7 7.2
2016-Jun-24 12:34N 51°18' E 004°17'2 2.4
2016-Jun-24 11:33N 51°17' E 004°20'1 0.6
2016-Jun-24 10:33N 51°17' E 004°20'3 1.3
2016-Jun-24 08:33N 51°20' E 004°18'0 0.0
2016-Jun-24 07:21N 51°20' E 004°18'0 0.0
2016-Jun-24 04:27N 51°20' E 004°18'0 0.0
2016-Jun-24 03:30N 51°20' E 004°18'0 0.0
2016-Jun-24 02:21N 51°20' E 004°18'0 0.0
2016-Jun-24 01:33N 51°20' E 004°18'0 0.0
2016-Jun-24 00:33N 51°20' E 004°18'0 0.0
2016-Jun-23 22:21N 51°20' E 004°18'0 0.0
2016-Jun-23 21:30N 51°20' E 004°18'0 0.0
2016-Jun-23 20:21N 51°20' E 004°18'0 0.0
2016-Jun-23 17:21N 51°20' E 004°18'0 0.0
2016-Jun-23 16:33N 51°20' E 004°18'0 0.0
2016-Jun-23 15:09N 51°20' E 004°18'0 0.0
2016-Jun-23 14:18N 51°20' E 004°18'0 0.0
2016-Jun-23 13:33N 51°20' E 004°18'0 0.0
2016-Jun-23 11:33N 51°20' E 004°18'1 1.2
2016-Jun-23 10:33N 51°21' E 004°17'0 0.1
2016-Jun-23 09:33N 51°21' E 004°17'5 4.8
2016-Jun-23 08:33N 51°24' E 004°11'8 7.5
2016-Jun-23 07:34N 51°26' E 003°60'14 7.2
2016-Jun-23 05:33N 51°26' E 003°37'9 8.7
2016-Jun-23 04:33N 51°31' E 003°26'1110.3
2016-Jun-23 03:32N 51°41' E 003°18'5 4.6
2016-Jun-23 02:32N 51°45' E 003°17'4 3.5
2016-Jun-23 01:25N 51°47' E 003°22'0 0.1
2016-Jun-23 00:31N 51°47' E 003°22'0 0.0
2016-Jun-22 23:19N 51°47' E 003°22'0 0.0
2016-Jun-22 21:31N 51°47' E 003°22'0 0.0
2016-Jun-22 20:07N 51°47' E 003°22'0 0.0
2016-Jun-22 16:28N 51°47' E 003°22'0 0.0
2016-Jun-22 14:04N 51°47' E 003°22'0 0.0
2016-Jun-22 11:22N 51°47' E 003°22'0 0.0
2016-Jun-22 09:28N 51°47' E 003°22'0 0.0
2016-Jun-22 08:07N 51°47' E 003°22'0 0.0
2016-Jun-22 01:16N 51°47' E 003°22'0 0.1
2016-Jun-21 23:31N 51°47' E 003°22'0 0.1
2016-Jun-21 22:28N 51°47' E 003°22'0 0.0
2016-Jun-21 21:31N 51°47' E 003°22'0 0.1
2016-Jun-21 20:25N 51°47' E 003°22'0 0.0
2016-Jun-21 17:07N 51°47' E 003°22'0 0.0
2016-Jun-19 18:25N 51°47' E 003°22'0 0.0
2016-Jun-19 15:04N 51°47' E 003°22'0 0.0
2016-Jun-19 14:31N 51°47' E 003°22'0 0.0
2016-Jun-19 13:31N 51°47' E 003°22'0 0.0
2016-Jun-19 12:31N 51°47' E 003°22'0 0.0
2016-Jun-19 11:31N 51°47' E 003°22'3 0.1
2016-Jun-18 10:09N 51°46' E 003°19'7510.9
2016-Jun-18 03:15N 52°45' E 002°02'811.2
2016-Jun-18 02:33N 52°48' E 001°51'1010.0
2016-Jun-18 01:33N 52°54' E 001°38'10 9.5
2016-Jun-18 00:33N 53°02' E 001°27'10 9.6
2016-Jun-17 23:33N 53°10' E 001°20'12 9.7
2016-Jun-17 22:16N 53°21' E 001°09'710.1
2016-Jun-17 21:32N 53°25' E 000°59'1010.1
2016-Jun-17 20:30N 53°31' E 000°44'9 9.9
2016-Jun-17 19:33N 53°38' E 000°33'1010.1
2016-Jun-17 18:33N 53°47' E 000°25'1110.9
2016-Jun-17 17:31N 53°57' E 000°17'1111.3
2016-Jun-17 16:33N 54°07' E 000°10'1111.3
2016-Jun-17 15:33N 54°17' E 000°01'1111.3
2016-Jun-17 14:33N 54°27' W 000°09'1111.4
2016-Jun-17 13:33N 54°37' W 000°16'1311.4
2016-Jun-17 12:26N 54°45' W 000°34'1111.0
2016-Jun-17 11:28N 54°48' W 000°51'1010.5
2016-Jun-17 10:33N 54°46' W 001°07'2 1.5
2016-Jun-17 09:33N 54°45' W 001°10'0 0.0
2016-Jun-17 08:33N 54°45' W 001°10'0 0.0
2016-Jun-17 07:24N 54°45' W 001°10'0 0.0
2016-Jun-17 06:24N 54°45' W 001°10'0 0.0
2016-Jun-17 05:24N 54°45' W 001°10'0 0.0
2016-Jun-17 04:27N 54°45' W 001°10'0 0.0
2016-Jun-17 03:27N 54°45' W 001°10'0 0.0
2016-Jun-17 02:30N 54°45' W 001°10'0 0.3
2016-Jun-17 01:33N 54°45' W 001°09'6 0.4
2016-Jun-16 09:12N 54°39' W 001°08'5 7.1
2016-Jun-16 08:33N 54°42' W 001°02'4 4.1
2016-Jun-16 07:32N 54°43' W 000°55'0 0.0
2016-Jun-16 06:32N 54°43' W 000°55'0 0.0
2016-Jun-16 05:33N 54°43' W 000°55'0 0.0
2016-Jun-16 04:33N 54°43' W 000°54'1 1.5
2016-Jun-16 03:33N 54°42' W 000°52'1511.6
2016-Jun-16 02:14N 54°35' W 000°29'7 9.7
2016-Jun-16 01:33N 54°31' W 000°20'1010.1
2016-Jun-16 00:33N 54°23' W 000°09'1010.2
2016-Jun-15 23:33N 54°15' E 000°02'1110.6
2016-Jun-15 22:33N 54°06' E 000°12'2412.1
2016-Jun-15 20:33N 53°44' E 000°28'1413.1
2016-Jun-15 19:28N 53°32' E 000°42'1313.0
2016-Jun-15 18:27N 53°26' E 001°02'2211.8
2016-Jun-15 16:33N 53°08' E 001°24'1111.1
2016-Jun-15 15:33N 52°59' E 001°33'1111.3
2016-Jun-15 14:33N 52°51' E 001°47'1110.9
2016-Jun-15 13:33N 52°44' E 002°01'7411.9
2016-Jun-15 07:21N 51°45' E 003°13'810.0
2016-Jun-15 06:33N 51°38' E 003°21'  

Dump ship's entire track history